Time;durP1;ratioP1;P1;durP2;ratioP2;P2;SDS_P1;SDS_P2;PMS_P1;PMS_P2;Temp;Humidity;BMP_temperature;BMP_pressure;BME280_temperature;BME280_humidity;BME280_pressure;Samples;Min_cycle;Max_cycle;Signal;HPM_P1;HPM_P2
2023/10/01 00:02:02;;;;;;;1.40;0.98;;;21.80;58.50;;;;;;6256707;28;20070;-75
2023/10/01 00:05:05;;;;;;;2.80;1.13;;;21.80;58.70;;;;;;6266092;28;20108;-76
2023/10/01 00:08:12;;;;;;;2.35;0.98;;;21.80;58.50;;;;;;6247243;28;20079;-76
2023/10/01 00:11:13;;;;;;;1.48;0.93;;;21.80;58.80;;;;;;6282674;28;20060;-75
2023/10/01 00:14:16;;;;;;;1.73;1.00;;;21.80;58.50;;;;;;6272862;28;20424;-76
2023/10/01 00:17:16;;;;;;;1.60;0.90;;;21.80;59.10;;;;;;6271687;28;20025;-76
2023/10/01 00:20:23;;;;;;;2.35;1.17;;;21.80;58.60;;;;;;6269866;28;20471;-76
2023/10/01 00:23:23;;;;;;;1.65;0.90;;;21.80;58.80;;;;;;6265682;28;20044;-76
2023/10/01 00:26:24;;;;;;;1.35;0.90;;;21.80;59.00;;;;;;6271413;28;20037;-76
2023/10/01 00:29:25;;;;;;;1.02;0.88;;;21.80;59.30;;;;;;6263125;28;20032;-76
2023/10/01 00:32:29;;;;;;;1.35;0.85;;;21.70;58.80;;;;;;6267069;28;20440;-76
2023/10/01 00:35:30;;;;;;;2.00;0.98;;;21.80;58.90;;;;;;6270749;28;20036;-76
2023/10/01 00:38:31;;;;;;;1.80;1.05;;;21.70;58.80;;;;;;6267416;28;20037;-76
2023/10/01 00:41:33;;;;;;;2.08;1.00;;;21.80;59.20;;;;;;6266591;28;20670;-75
2023/10/01 00:44:36;;;;;;;2.08;1.05;;;21.80;58.90;;;;;;6262969;28;20025;-76
2023/10/01 00:47:41;;;;;;;2.90;0.90;;;21.80;59.10;;;;;;6266718;28;20545;-76
2023/10/01 00:50:42;;;;;;;1.50;0.95;;;21.80;59.00;;;;;;6262599;28;20037;-76
2023/10/01 00:53:45;;;;;;;1.10;0.82;;;21.80;58.80;;;;;;6257873;28;20036;-76
2023/10/01 00:56:46;;;;;;;1.52;0.93;;;21.80;59.00;;;;;;6254505;28;20013;-76
2023/10/01 00:59:48;;;;;;;1.35;0.80;;;21.80;59.00;;;;;;6270294;28;20024;-76
2023/10/01 01:06:12;;;;;;;1.35;0.85;;;21.80;59.10;;;;;;6255577;28;20029;-76
2023/10/01 01:09:15;;;;;;;1.83;1.00;;;21.80;59.10;;;;;;6248172;28;20571;-75
2023/10/01 01:12:15;;;;;;;1.55;1.00;;;21.70;59.20;;;;;;6262464;28;20026;-76
2023/10/01 01:15:16;;;;;;;1.55;0.90;;;21.80;59.10;;;;;;6258176;28;20036;-76
2023/10/01 01:18:20;;;;;;;1.08;0.80;;;21.70;59.10;;;;;;6257003;28;20586;-76
2023/10/01 01:21:23;;;;;;;0.77;0.60;;;21.70;59.10;;;;;;6249011;28;20096;-76
2023/10/01 01:24:24;;;;;;;2.08;1.02;;;21.70;59.00;;;;;;6267349;28;20064;-76
2023/10/01 01:27:30;;;;;;;1.95;0.95;;;21.70;59.10;;;;;;6253276;28;20021;-76
2023/10/01 01:30:36;;;;;;;2.45;1.00;;;21.70;59.10;;;;;;6266814;28;20051;-76
2023/10/01 01:33:52;;;;;;;1.55;0.95;;;21.70;59.10;;;;;;6256986;28;20033;-76
2023/10/01 01:36:53;;;;;;;1.23;0.90;;;21.70;59.20;;;;;;6269682;28;20025;-75
2023/10/01 01:39:54;;;;;;;1.20;0.80;;;21.70;59.20;;;;;;6269910;28;20048;-76
2023/10/01 01:42:58;;;;;;;1.60;1.00;;;21.70;59.20;;;;;;6269444;28;20543;-76
2023/10/01 01:46:09;;;;;;;1.45;0.98;;;21.70;59.40;;;;;;6270766;28;20108;-76
2023/10/01 01:49:10;;;;;;;1.98;0.90;;;21.70;59.30;;;;;;6261185;28;20021;-76
2023/10/01 01:52:11;;;;;;;1.25;0.65;;;21.70;59.30;;;;;;6258834;28;20459;-76
2023/10/01 01:55:23;;;;;;;1.92;1.00;;;21.70;59.20;;;;;;6269228;28;20033;-76
2023/10/01 01:58:26;;;;;;;0.95;0.65;;;21.70;59.60;;;;;;6259828;28;20619;-75
2023/10/01 02:01:29;;;;;;;2.05;1.00;;;21.70;59.40;;;;;;6264276;28;20469;-76
2023/10/01 02:04:31;;;;;;;1.15;0.80;;;21.70;59.30;;;;;;6261681;28;20037;-75
2023/10/01 02:07:33;;;;;;;1.27;0.75;;;21.70;59.50;;;;;;6269475;28;20446;-76
2023/10/01 02:10:45;;;;;;;1.48;1.00;;;21.70;59.50;;;;;;6252419;28;20021;-76
2023/10/01 02:13:51;;;;;;;1.92;0.90;;;21.70;59.50;;;;;;6269632;28;20036;-76
2023/10/01 02:16:56;;;;;;;1.55;0.90;;;21.70;59.50;;;;;;6268501;28;20024;-76
2023/10/01 02:19:58;;;;;;;0.80;0.68;;;21.70;59.50;;;;;;6267694;28;20141;-76
2023/10/01 02:23:02;;;;;;;1.13;0.75;;;21.70;59.70;;;;;;6263906;28;20075;-76
2023/10/01 02:26:06;;;;;;;1.90;0.60;;;21.70;59.60;;;;;;6269700;28;20028;-76
2023/10/01 02:29:09;;;;;;;1.73;0.85;;;21.70;59.70;;;;;;6268511;28;20108;-75
2023/10/01 02:32:12;;;;;;;1.30;0.75;;;21.70;59.70;;;;;;6261758;28;20113;-76
2023/10/01 02:35:34;;;;;;;1.05;0.90;;;21.70;59.60;;;;;;6260854;28;20048;-76
2023/10/01 02:38:37;;;;;;;1.10;0.80;;;21.70;59.70;;;;;;6260609;28;20091;-77
2023/10/01 02:41:40;;;;;;;1.55;0.90;;;21.70;59.60;;;;;;6265096;28;20033;-76
2023/10/01 02:44:46;;;;;;;0.85;0.70;;;21.70;59.50;;;;;;6255054;28;20537;-75
2023/10/01 02:48:12;;;;;;;1.45;0.80;;;21.70;59.60;;;;;;6244810;28;20417;-76
2023/10/01 02:51:15;;;;;;;1.30;0.88;;;21.70;59.80;;;;;;6250787;28;20060;-77
2023/10/01 02:54:18;;;;;;;1.35;0.93;;;21.70;59.70;;;;;;6253154;28;20113;-76
2023/10/01 02:57:26;;;;;;;1.08;0.70;;;21.70;59.70;;;;;;6257017;28;20032;-76
2023/10/01 03:00:30;;;;;;;1.45;0.75;;;21.70;59.80;;;;;;6256673;28;20116;-76
2023/10/01 03:03:32;;;;;;;1.13;0.70;;;21.70;59.80;;;;;;6268337;28;20078;-76
2023/10/01 03:06:33;;;;;;;2.10;0.90;;;21.70;59.90;;;;;;6268155;28;20736;-76
2023/10/01 03:09:33;;;;;;;1.63;0.98;;;21.70;59.80;;;;;;6270176;28;20044;-76
2023/10/01 03:12:40;;;;;;;1.38;0.77;;;21.70;59.90;;;;;;6273154;28;20051;-76
2023/10/01 03:15:41;;;;;;;1.63;0.90;;;21.70;60.00;;;;;;6274182;28;20025;-76
2023/10/01 03:18:44;;;;;;;1.00;0.80;;;21.70;60.10;;;;;;6272704;28;20071;-76
2023/10/01 03:25:11;;;;;;;1.17;0.90;;;21.70;60.00;;;;;;6249953;28;20021;-75
2023/10/01 03:28:15;;;;;;;1.58;0.98;;;21.70;60.10;;;;;;6261194;28;20028;-75
2023/10/01 03:31:15;;;;;;;0.80;0.68;;;21.70;60.00;;;;;;6272653;28;20159;-76
2023/10/01 03:34:28;;;;;;;1.17;0.82;;;21.70;60.10;;;;;;6263959;28;20071;-77
2023/10/01 03:37:37;;;;;;;1.17;0.85;;;21.70;60.00;;;;;;6255928;28;20076;-76
2023/10/01 03:40:58;;;;;;;1.15;0.73;;;21.70;60.20;;;;;;6260505;28;20411;-77
2023/10/01 03:44:09;;;;;;;1.35;0.77;;;21.70;60.20;;;;;;6272267;28;20166;-77
2023/10/01 03:47:09;;;;;;;2.20;0.88;;;21.60;60.00;;;;;;6257602;28;20403;-76
2023/10/01 03:50:15;;;;;;;1.50;0.80;;;21.60;59.90;;;;;;6270712;28;20564;-76
2023/10/01 03:53:18;;;;;;;1.35;0.93;;;21.60;59.90;;;;;;6262268;28;20033;-76
2023/10/01 03:56:20;;;;;;;1.25;0.70;;;21.70;60.10;;;;;;6247368;28;20399;-76
2023/10/01 04:03:22;;;;;;;1.42;0.77;;;21.60;60.00;;;;;;6271850;28;20063;-76
2023/10/01 04:06:22;;;;;;;1.33;0.77;;;21.60;60.10;;;;;;6258257;28;20071;-76
2023/10/01 04:09:26;;;;;;;1.02;0.80;;;21.70;60.20;;;;;;6267595;28;20637;-75
2023/10/01 04:12:32;;;;;;;1.10;0.70;;;21.60;60.10;;;;;;6271815;28;20122;-76
2023/10/01 04:15:40;;;;;;;1.25;0.80;;;21.60;60.20;;;;;;6271692;28;20037;-75
2023/10/01 04:18:48;;;;;;;1.13;0.80;;;21.60;60.20;;;;;;6271255;28;20024;-76
2023/10/01 04:21:50;;;;;;;0.93;0.70;;;21.60;60.30;;;;;;6264852;28;20060;-77
2023/10/01 04:25:09;;;;;;;0.88;0.55;;;21.60;60.30;;;;;;6262290;28;20021;-76
2023/10/01 04:28:10;;;;;;;1.30;0.60;;;21.60;60.20;;;;;;6265040;28;20110;-76
2023/10/01 04:31:42;;;;;;;0.75;0.65;;;21.60;60.30;;;;;;6264317;28;20515;-76
2023/10/01 04:34:44;;;;;;;2.22;0.80;;;21.60;60.30;;;;;;6265410;28;20025;-76
2023/10/01 04:37:47;;;;;;;2.25;1.10;;;21.60;60.30;;;;;;6270987;28;20549;-77
2023/10/01 04:40:49;;;;;;;1.77;0.70;;;21.60;60.20;;;;;;6264644;28;20103;-76
2023/10/01 04:43:55;;;;;;;1.27;0.80;;;21.60;60.30;;;;;;6269420;28;20021;-76
2023/10/01 04:47:24;;;;;;;1.10;0.82;;;21.60;60.30;;;;;;6271121;28;20024;-75
2023/10/01 04:50:19;;;;;;;1.25;0.77;;;21.60;60.40;;;;;;6265038;28;20123;-76
2023/10/01 04:53:22;;;;;;;1.27;0.70;;;21.60;60.40;;;;;;6262276;28;20079;-76
2023/10/01 04:56:25;;;;;;;1.15;0.70;;;21.60;60.20;;;;;;6267714;28;20032;-76
2023/10/01 04:59:27;;;;;;;1.17;0.73;;;21.60;60.40;;;;;;6263683;28;20045;-77
2023/10/01 05:02:29;;;;;;;1.52;0.82;;;21.60;60.40;;;;;;6255037;28;20024;-76
2023/10/01 05:05:36;;;;;;;1.55;0.75;;;21.60;60.30;;;;;;6257701;28;20025;-77
2023/10/01 05:08:40;;;;;;;0.88;0.70;;;21.60;60.40;;;;;;6258305;28;20025;-77
2023/10/01 05:11:42;;;;;;;1.63;0.77;;;21.60;60.20;;;;;;6263310;28;20563;-76
2023/10/01 05:15:17;;;;;;;0.77;0.60;;;21.60;60.30;;;;;;6258769;28;20455;-76
2023/10/01 05:18:17;;;;;;;0.68;0.50;;;21.60;60.40;;;;;;6254875;28;20028;-76
2023/10/01 05:21:18;;;;;;;1.55;0.60;;;21.60;60.50;;;;;;6264714;28;20457;-76
2023/10/01 05:24:34;;;;;;;0.85;0.68;;;21.60;60.40;;;;;;6253531;28;20137;-76
2023/10/01 05:27:35;;;;;;;1.33;0.70;;;21.60;60.70;;;;;;6265840;28;20045;-77
2023/10/01 05:30:38;;;;;;;1.05;0.77;;;21.60;60.40;;;;;;6269645;28;20047;-77
2023/10/01 05:33:39;;;;;;;1.10;0.70;;;21.60;60.50;;;;;;6269576;28;20021;-76
2023/10/01 05:36:40;;;;;;;1.27;0.80;;;21.60;60.50;;;;;;6269878;28;20021;-76
2023/10/01 05:39:58;;;;;;;1.15;0.60;;;21.60;60.60;;;;;;6262656;28;20041;-75
2023/10/01 05:43:12;;;;;;;1.55;1.00;;;21.60;60.50;;;;;;6246520;28;20021;-76
2023/10/01 05:46:14;;;;;;;1.30;0.75;;;21.60;60.60;;;;;;6254979;28;20048;-76
2023/10/01 05:49:18;;;;;;;0.90;0.65;;;21.60;60.70;;;;;;6268842;28;20108;-76
2023/10/01 05:52:21;;;;;;;1.25;0.70;;;21.60;60.60;;;;;;6255605;28;20461;-78
2023/10/01 05:55:23;;;;;;;2.05;1.00;;;21.60;60.40;;;;;;6262260;28;20485;-76
2023/10/01 05:58:26;;;;;;;1.02;0.75;;;21.60;60.40;;;;;;6266039;28;20036;-76
2023/10/01 06:01:28;;;;;;;0.95;0.60;;;21.60;60.60;;;;;;6265045;28;20108;-77
2023/10/01 06:04:28;;;;;;;1.40;0.80;;;21.60;60.60;;;;;;6268871;28;20110;-77
2023/10/01 06:07:29;;;;;;;0.82;0.68;;;21.60;60.60;;;;;;6255081;28;20032;-76
2023/10/01 06:10:35;;;;;;;1.55;0.70;;;21.60;60.60;;;;;;6268609;28;20083;-77
2023/10/01 06:13:38;;;;;;;0.73;0.63;;;21.60;60.50;;;;;;6268849;28;20057;-76
2023/10/01 06:16:39;;;;;;;2.30;0.80;;;21.60;60.60;;;;;;6263087;28;20021;-76
2023/10/01 06:19:42;;;;;;;0.90;0.60;;;21.60;61.50;;;;;;6247568;28;20098;-76
2023/10/01 06:22:43;;;;;;;1.05;0.75;;;21.60;60.60;;;;;;6258623;28;20036;-77
2023/10/01 06:25:51;;;;;;;1.10;0.80;;;21.60;60.70;;;;;;6268555;28;20492;-76
2023/10/01 06:28:51;;;;;;;1.00;0.70;;;21.60;60.60;;;;;;6268456;28;20029;-76
2023/10/01 06:32:02;;;;;;;1.02;0.70;;;21.60;60.60;;;;;;6256269;28;20399;-77
2023/10/01 06:35:04;;;;;;;1.42;0.85;;;21.60;60.70;;;;;;6262095;28;20021;-76
2023/10/01 06:38:05;;;;;;;0.95;0.70;;;21.60;60.70;;;;;;6260622;28;20052;-76
2023/10/01 06:41:13;;;;;;;1.33;0.60;;;21.60;60.70;;;;;;6268395;28;20684;-76
2023/10/01 06:44:15;;;;;;;1.17;0.70;;;21.60;60.80;;;;;;6245449;28;20072;-77
2023/10/01 06:47:17;;;;;;;1.25;0.70;;;21.60;60.90;;;;;;6253332;28;20049;-77
2023/10/01 06:50:20;;;;;;;0.80;0.60;;;21.60;61.00;;;;;;6253492;28;20029;-76
2023/10/01 06:53:43;;;;;;;1.05;0.70;;;21.60;60.90;;;;;;6262392;28;20506;-77
2023/10/01 06:56:44;;;;;;;1.25;0.82;;;21.60;60.80;;;;;;6261114;28;20025;-77
2023/10/01 06:59:45;;;;;;;1.15;0.68;;;21.60;60.80;;;;;;6254324;28;20075;-76
2023/10/01 07:02:46;;;;;;;1.30;0.73;;;21.60;61.00;;;;;;6249684;28;20545;-77
2023/10/01 07:05:51;;;;;;;1.05;0.63;;;21.60;61.00;;;;;;6255094;28;20029;-76
2023/10/01 07:08:53;;;;;;;1.58;0.82;;;21.60;61.10;;;;;;6267578;28;20021;-77
2023/10/01 07:11:58;;;;;;;1.20;0.75;;;21.60;61.00;;;;;;6268442;28;20033;-81
2023/10/01 07:14:59;;;;;;;0.63;0.60;;;21.60;61.00;;;;;;6262529;28;20025;-76
2023/10/01 07:18:13;;;;;;;1.48;0.80;;;21.60;61.10;;;;;;6268011;28;20021;-77
2023/10/01 07:21:16;;;;;;;1.92;0.82;;;21.60;61.10;;;;;;6260012;28;20022;-76
2023/10/01 07:24:20;;;;;;;0.60;0.50;;;21.60;61.10;;;;;;6263719;28;20021;-77
2023/10/01 07:27:21;;;;;;;0.83;0.50;;;21.60;61.30;;;;;;6243192;28;20021;-77
2023/10/01 07:30:39;;;;;;;1.30;0.77;;;21.60;61.20;;;;;;6256269;28;20032;-76
2023/10/01 07:33:40;;;;;;;0.82;0.80;;;21.60;61.20;;;;;;6264622;28;20099;-76
2023/10/01 07:36:42;;;;;;;0.90;0.75;;;21.60;61.20;;;;;;6269350;28;20025;-77
2023/10/01 07:39:44;;;;;;;0.63;0.50;;;21.60;61.20;;;;;;6268930;28;20041;-76
2023/10/01 07:42:49;;;;;;;1.00;0.60;;;21.60;61.30;;;;;;6263358;28;20092;-76
2023/10/01 07:46:02;;;;;;;0.70;0.50;;;21.60;61.40;;;;;;6250686;28;20033;-75
2023/10/01 07:49:08;;;;;;;1.17;0.68;;;21.60;61.50;;;;;;6260237;28;20104;-76
2023/10/01 07:52:10;;;;;;;1.05;0.55;;;21.50;61.30;;;;;;6259486;28;20063;-75
2023/10/01 07:55:30;;;;;;;1.00;0.70;;;21.60;61.40;;;;;;6253240;28;20053;-74
2023/10/01 07:58:47;;;;;;;1.10;0.60;;;21.60;61.20;;;;;;6269843;28;20050;-75
2023/10/01 08:02:07;;;;;;;0.90;0.60;;;21.60;61.40;;;;;;6255774;28;20025;-75
2023/10/01 08:05:08;;;;;;;0.80;0.70;;;21.60;61.40;;;;;;6265132;28;20025;-75
2023/10/01 08:08:09;;;;;;;5.35;0.70;;;21.70;61.40;;;;;;6275120;28;20093;-75
2023/10/01 08:14:35;;;;;;;23.65;1.35;;;21.70;61.80;;;;;;6260137;28;20037;-75
2023/10/01 08:17:35;;;;;;;15.85;1.33;;;21.70;62.10;;;;;;6270218;28;20021;-75
2023/10/01 08:20:36;;;;;;;16.48;1.38;;;21.70;62.40;;;;;;6269930;28;20021;-74
2023/10/01 08:23:48;;;;;;;9.68;1.10;;;21.70;62.20;;;;;;6275960;28;20025;-74
2023/10/01 08:26:57;;;;;;;15.20;1.25;;;21.70;62.40;;;;;;6287451;28;20033;-74
2023/10/01 08:29:59;;;;;;;7.32;1.10;;;21.80;62.50;;;;;;6269717;28;20091;-75
2023/10/01 08:33:18;;;;;;;14.23;1.50;;;21.80;62.80;;;;;;6270774;28;20547;-75
2023/10/01 08:36:24;;;;;;;19.10;1.35;;;21.80;62.90;;;;;;6269473;28;20025;-75
2023/10/01 08:42:47;;;;;;;18.85;1.60;;;21.80;63.10;;;;;;6270160;28;20053;-75
2023/10/01 08:45:52;;;;;;;16.20;1.65;;;21.90;64.20;;;;;;6264078;28;20036;-75
2023/10/01 08:49:18;;;;;;;21.70;2.13;;;21.90;64.60;;;;;;6266469;28;20021;-76
2023/10/01 08:52:25;;;;;;;21.63;1.58;;;21.90;63.70;;;;;;6281793;28;20028;-75
2023/10/01 08:58:49;;;;;;;17.95;1.40;;;21.90;64.10;;;;;;6257192;28;20037;-74
2023/10/01 09:01:52;;;;;;;27.13;2.65;;;21.90;64.20;;;;;;6267805;28;20032;-74
2023/10/01 09:04:56;;;;;;;82.00;5.03;;;21.90;64.70;;;;;;6265636;28;20480;-75
2023/10/01 09:08:15;;;;;;;81.63;6.05;;;21.90;64.70;;;;;;6259130;28;20048;-73
2023/10/01 09:11:17;;;;;;;119.72;7.18;;;21.90;64.90;;;;;;6258482;28;20040;-74
2023/10/01 09:14:35;;;;;;;76.13;5.40;;;21.90;64.60;;;;;;6266112;28;20095;-74
2023/10/01 09:17:40;;;;;;;70.60;4.60;;;21.90;64.30;;;;;;6268679;28;20017;-73
2023/10/01 09:20:42;;;;;;;70.47;5.00;;;21.90;64.00;;;;;;6267078;28;20059;-74
2023/10/01 09:24:33;;;;;;;69.22;5.68;;;21.90;64.60;;;;;;6267026;28;20040;-73
2023/10/01 09:27:24;;;;;;;45.58;3.97;;;21.90;64.90;;;;;;6269048;28;20083;-74
2023/10/01 09:30:34;;;;;;;44.90;3.67;;;21.90;64.50;;;;;;6269039;28;20047;-73
2023/10/01 09:33:39;;;;;;;69.55;5.10;;;21.90;64.60;;;;;;6271020;28;20036;-74
2023/10/01 09:36:45;;;;;;;;;;;21.90;64.30;;;;;;6269090;28;20025;-73
2023/10/01 09:39:46;;;;;;;65.43;5.45;;;21.90;64.80;;;;;;6261144;28;19917;-74
2023/10/01 09:42:56;;;;;;;85.93;6.40;;;21.90;64.40;;;;;;6261626;28;20368;-74
2023/10/01 09:46:02;;;;;;;79.13;6.45;;;21.90;64.60;;;;;;6251620;28;20116;-73
2023/10/01 09:49:05;;;;;;;103.88;7.53;;;21.90;65.60;;;;;;6264295;28;20028;-73
2023/10/01 09:52:08;;;;;;;145.93;9.15;;;21.90;65.70;;;;;;6259226;28;20031;-74
2023/10/01 09:55:24;;;;;;;102.78;8.85;;;21.90;66.00;;;;;;6246013;28;20036;-74
2023/10/01 09:58:25;;;;;;;108.22;7.57;;;21.90;66.00;;;;;;6267081;28;20029;-74
2023/10/01 10:01:27;;;;;;;89.28;7.35;;;21.90;65.60;;;;;;6264394;28;20044;-74
2023/10/01 10:04:29;;;;;;;172.38;12.93;;;21.90;65.60;;;;;;6259980;28;20038;-74
2023/10/01 10:07:32;;;;;;;148.70;10.18;;;21.90;66.10;;;;;;6256527;28;20060;-74
2023/10/01 10:10:33;;;;;;;124.82;9.30;;;22.00;65.30;;;;;;6259124;28;20056;-74
2023/10/01 10:13:45;;;;;;;124.70;10.15;;;22.00;65.80;;;;;;6261218;28;20391;-75
2023/10/01 10:16:59;;;;;;;121.18;8.73;;;22.00;65.60;;;;;;6254510;28;20428;-73
2023/10/01 10:20:24;;;;;;;108.90;8.50;;;22.00;66.00;;;;;;6280434;28;20122;-74
2023/10/01 10:23:29;;;;;;;219.38;12.60;;;21.90;65.60;;;;;;6245819;28;20472;-74
2023/10/01 10:26:56;;;;;;;189.38;11.32;;;22.00;67.10;;;;;;6256908;28;20496;-74
2023/10/01 10:30:05;;;;;;;109.22;10.82;;;22.00;66.80;;;;;;6260108;28;20017;-74
2023/10/01 10:33:15;;;;;;;100.13;8.93;;;22.00;65.80;;;;;;6252611;28;20026;-75
2023/10/01 10:36:55;;;;;;;132.88;9.90;;;22.00;65.80;;;;;;6257791;28;20566;-75
2023/10/01 10:40:02;;;;;;;113.03;10.40;;;22.00;66.00;;;;;;6156568;28;20078;-75
2023/10/01 10:43:16;;;;;;;127.40;9.80;;;22.00;66.90;;;;;;6264275;28;20407;-74
2023/10/01 10:46:17;;;;;;;131.50;10.00;;;22.00;66.00;;;;;;6273870;28;20029;-76
2023/10/01 10:49:23;;;;;;;112.03;9.23;;;22.00;66.20;;;;;;6265931;28;20515;-75
2023/10/01 10:52:32;;;;;;;130.00;10.45;;;22.00;66.00;;;;;;6261314;28;20032;-75
2023/10/01 10:55:36;;;;;;;78.82;8.95;;;22.00;66.40;;;;;;6259953;28;20543;-75
2023/10/01 10:58:44;;;;;;;97.37;7.93;;;22.00;66.00;;;;;;6251563;28;20022;-74
2023/10/01 11:01:46;;;;;;;85.88;8.60;;;22.00;65.00;;;;;;6257602;28;20025;-74
2023/10/01 11:04:48;;;;;;;68.32;7.05;;;22.00;65.70;;;;;;6251655;28;20044;-75
2023/10/01 11:07:58;;;;;;;57.63;7.20;;;22.00;66.50;;;;;;6267470;28;20399;-75
2023/10/01 11:11:10;;;;;;;62.13;6.78;;;22.00;66.10;;;;;;6263822;28;20040;-78
2023/10/01 11:14:17;;;;;;;75.50;7.65;;;22.00;66.40;;;;;;6252607;28;20056;-76
2023/10/01 11:17:22;;;;;;;63.67;6.45;;;22.00;66.30;;;;;;6264653;28;20025;-77
2023/10/01 11:20:22;;;;;;;49.65;6.15;;;22.00;66.50;;;;;;6249437;28;20126;-76
2023/10/01 11:23:24;;;;;;;48.15;5.93;;;22.00;66.40;;;;;;6258482;28;20151;-76
2023/10/01 11:26:27;;;;;;;53.72;5.60;;;22.00;66.60;;;;;;6264437;28;20389;-77
2023/10/01 11:29:30;;;;;;;70.10;7.43;;;22.10;66.60;;;;;;6258222;28;20031;-76
2023/10/01 11:36:14;;;;;;;45.88;5.45;;;22.00;66.50;;;;;;6264006;28;20028;-76
2023/10/01 11:39:38;;;;;;;60.63;5.82;;;22.00;66.10;;;;;;6248475;28;20050;-78
2023/10/01 11:42:52;;;;;;;40.22;4.97;;;22.00;65.90;;;;;;6249545;28;20297;-77
2023/10/01 11:46:23;;;;;;;33.25;4.30;;;22.00;66.10;;;;;;6271908;28;20021;-76
2023/10/01 11:49:37;;;;;;;33.35;4.18;;;22.00;66.10;;;;;;6258986;28;20359;-76
2023/10/01 11:52:42;;;;;;;42.00;4.38;;;22.00;66.00;;;;;;6262617;28;20694;-77
2023/10/01 11:55:43;;;;;;;28.77;3.97;;;22.00;66.10;;;;;;6267802;28;20451;-79
2023/10/01 11:58:44;;;;;;;27.92;4.13;;;21.90;65.80;;;;;;6266265;28;20052;-77
2023/10/01 12:01:52;;;;;;;37.92;4.38;;;21.90;65.70;;;;;;6263193;28;20074;-76
2023/10/01 12:04:58;;;;;;;32.13;4.70;;;21.90;65.80;;;;;;6269729;28;20025;-76
2023/10/01 12:07:59;;;;;;;37.97;4.50;;;21.90;65.70;;;;;;6257173;28;20103;-72
2023/10/01 12:11:26;;;;;;;27.23;4.15;;;21.90;65.90;;;;;;6264217;28;20075;-70
2023/10/01 12:14:21;;;;;;;38.85;5.22;;;21.90;65.80;;;;;;6278933;28;20029;-72
2023/10/01 12:17:26;;;;;;;41.53;4.70;;;21.90;65.40;;;;;;6254981;28;20029;-72
2023/10/01 12:20:30;;;;;;;20.45;3.42;;;21.90;64.80;;;;;;6252202;28;20029;-72
2023/10/01 12:23:33;;;;;;;24.67;3.70;;;21.90;65.30;;;;;;6270577;28;20017;-75
2023/10/01 12:26:36;;;;;;;18.88;3.58;;;21.90;65.60;;;;;;6254798;28;20046;-72
2023/10/01 12:29:43;;;;;;;28.15;3.70;;;21.90;65.80;;;;;;6248426;28;20026;-71
2023/10/01 12:32:48;;;;;;;23.25;4.10;;;21.90;65.70;;;;;;6262038;28;20459;-72
2023/10/01 12:35:48;;;;;;;23.47;3.80;;;21.90;65.50;;;;;;6261278;28;20495;-70
2023/10/01 12:38:49;;;;;;;31.42;4.60;;;21.90;65.40;;;;;;6259256;28;20045;-71
2023/10/01 12:45:13;;;;;;;30.77;3.83;;;21.90;65.80;;;;;;6265161;28;20025;-74
2023/10/01 12:48:14;;;;;;;20.25;3.65;;;21.90;65.90;;;;;;6253080;28;20480;-74
2023/10/01 12:51:14;;;;;;;23.83;3.22;;;21.90;65.90;;;;;;6268125;28;20040;-74
2023/10/01 12:54:18;;;;;;;17.95;3.63;;;21.90;66.00;;;;;;6266276;28;20044;-72
2023/10/01 12:57:22;;;;;;;20.43;3.97;;;21.90;65.80;;;;;;6268616;28;20021;-72
2023/10/01 13:00:23;;;;;;;15.30;3.42;;;21.90;65.80;;;;;;6277962;28;20021;-72
2023/10/01 13:03:24;;;;;;;15.98;3.17;;;21.90;65.90;;;;;;6276571;28;20021;-72
2023/10/01 13:06:24;;;;;;;13.70;3.05;;;21.80;65.80;;;;;;6271987;28;20022;-73
2023/10/01 13:13:05;;;;;;;24.80;3.72;;;21.80;65.80;;;;;;6270307;28;20483;-72
2023/10/01 13:16:02;;;;;;;14.05;3.08;;;21.80;65.90;;;;;;6268596;28;20033;-73
2023/10/01 13:19:17;;;;;;;14.98;2.80;;;21.80;65.90;;;;;;6268142;28;20147;-73
2023/10/01 13:22:18;;;;;;;12.13;2.30;;;21.80;65.80;;;;;;6268980;28;20037;-72
2023/10/01 13:25:20;;;;;;;10.35;2.60;;;21.80;65.80;;;;;;6268078;28;20067;-72
2023/10/01 13:28:43;;;;;;;15.93;2.85;;;21.80;65.70;;;;;;6263248;28;20594;-73
2023/10/01 13:31:43;;;;;;;8.85;2.70;;;21.80;65.70;;;;;;6266007;28;20044;-73
2023/10/01 13:34:54;;;;;;;12.55;3.13;;;21.80;65.70;;;;;;6255132;28;20403;-73
2023/10/01 13:38:15;;;;;;;9.70;2.75;;;21.80;65.80;;;;;;6258541;28;20040;-73
2023/10/01 14:11:05;;;;;;;9.40;2.78;;;21.80;65.60;;;;;;6249281;28;20028;-73
2023/10/01 14:14:08;;;;;;;8.82;2.25;;;21.80;65.60;;;;;;6267548;28;20021;-73
2023/10/01 14:17:13;;;;;;;7.28;2.08;;;21.80;65.60;;;;;;6267661;28;20053;-73
2023/10/01 14:20:17;;;;;;;3.92;1.60;;;21.80;65.60;;;;;;6268720;28;20033;-74
2023/10/01 14:23:28;;;;;;;7.82;1.95;;;21.80;65.50;;;;;;6267896;28;20029;-74
2023/10/01 14:26:38;;;;;;;9.40;2.30;;;21.80;65.60;;;;;;6267733;28;20025;-73
2023/10/01 14:29:40;;;;;;;7.25;2.03;;;21.70;65.40;;;;;;6261935;28;20025;-73
2023/10/01 14:32:40;;;;;;;6.50;2.25;;;21.70;65.40;;;;;;6267697;28;20017;-73
2023/10/01 14:35:47;;;;;;;4.28;1.95;;;21.70;65.40;;;;;;6263799;28;20025;-74
2023/10/01 14:38:49;;;;;;;9.82;2.08;;;21.70;65.40;;;;;;6249491;28;20044;-73
2023/10/01 14:41:50;;;;;;;8.30;2.25;;;21.70;65.40;;;;;;6268564;28;20014;-73
2023/10/01 14:44:51;;;;;;;5.85;2.00;;;21.70;65.40;;;;;;6267581;28;20029;-73
2023/10/01 14:47:52;;;;;;;8.45;2.00;;;21.70;65.40;;;;;;6259294;28;20152;-74
2023/10/01 14:50:56;;;;;;;6.97;2.03;;;21.70;65.40;;;;;;6244065;28;20029;-73
2023/10/01 14:53:58;;;;;;;6.80;1.67;;;21.70;65.40;;;;;;6257840;28;20052;-74
2023/10/01 14:56:58;;;;;;;5.43;1.92;;;21.70;65.40;;;;;;6250044;28;20033;-74
2023/10/01 15:00:00;;;;;;;6.25;2.38;;;21.70;65.30;;;;;;6259845;28;20104;-73
2023/10/01 15:03:01;;;;;;;7.30;1.60;;;21.70;65.30;;;;;;6268419;28;20017;-73
2023/10/01 15:06:04;;;;;;;3.70;1.42;;;21.70;65.20;;;;;;6262403;28;20026;-73
2023/10/01 15:09:05;;;;;;;6.00;1.70;;;21.70;65.40;;;;;;6263870;28;20403;-74
2023/10/01 15:12:09;;;;;;;4.75;1.60;;;21.70;65.40;;;;;;6257312;28;20073;-73
2023/10/01 15:15:18;;;;;;;10.23;1.75;;;21.70;65.40;;;;;;6265516;28;20036;-73
2023/10/01 15:18:19;;;;;;;4.30;1.63;;;21.70;65.30;;;;;;6264275;28;20032;-74
2023/10/01 15:21:20;;;;;;;6.57;2.30;;;21.70;65.30;;;;;;6267990;28;20017;-74
2023/10/01 15:24:21;;;;;;;4.57;1.48;;;21.70;65.40;;;;;;6261701;28;20500;-74
2023/10/01 15:27:25;;;;;;;5.80;1.90;;;21.70;65.20;;;;;;6267234;28;20031;-73
2023/10/01 15:30:34;;;;;;;3.67;1.30;;;21.70;65.30;;;;;;6272300;28;20025;-74
2023/10/01 15:33:36;;;;;;;5.30;1.73;;;21.70;65.30;;;;;;6272578;28;20021;-73
2023/10/01 15:36:41;;;;;;;4.15;1.52;;;21.70;65.30;;;;;;6272778;28;20014;-73
2023/10/01 15:39:44;;;;;;;4.43;1.30;;;21.70;65.40;;;;;;6257599;28;20115;-73
2023/10/01 15:42:53;;;;;;;4.43;1.60;;;21.70;65.40;;;;;;6271410;28;20059;-74
2023/10/01 15:46:12;;;;;;;5.68;1.85;;;21.70;65.40;;;;;;6271468;28;20029;-73
2023/10/01 15:49:19;;;;;;;3.70;1.70;;;21.70;65.40;;;;;;6247738;28;20094;-74
2023/10/01 15:52:21;;;;;;;3.45;1.23;;;21.70;65.40;;;;;;6265405;28;20075;-73
2023/10/01 15:55:33;;;;;;;3.90;1.63;;;21.70;65.40;;;;;;6263245;28;20597;-73
2023/10/01 15:58:36;;;;;;;5.53;1.90;;;21.70;65.20;;;;;;6269065;28;20361;-74
2023/10/01 16:01:48;;;;;;;5.80;1.73;;;21.70;65.30;;;;;;6271008;28;20484;-74
2023/10/01 16:04:59;;;;;;;4.93;1.48;;;21.70;65.40;;;;;;6256268;28;20033;-73
2023/10/01 16:07:59;;;;;;;3.10;1.25;;;21.70;65.30;;;;;;6262397;28;20060;-74
2023/10/01 16:11:00;;;;;;;4.18;1.88;;;21.70;65.40;;;;;;6263545;28;20035;-73
2023/10/01 16:14:04;;;;;;;3.17;1.23;;;21.70;65.30;;;;;;6270857;28;20028;-74
2023/10/01 16:17:20;;;;;;;4.45;1.50;;;21.70;65.30;;;;;;6270085;28;20493;-73
2023/10/01 16:20:21;;;;;;;1.95;1.10;;;21.70;65.20;;;;;;6259957;28;20468;-73
2023/10/01 16:23:22;;;;;;;5.15;1.33;;;21.70;65.20;;;;;;6271215;28;20048;-73
2023/10/01 16:26:24;;;;;;;2.13;0.93;;;21.70;65.20;;;;;;6271731;28;20031;-74
2023/10/01 16:29:25;;;;;;;2.53;1.23;;;21.70;65.20;;;;;;6251490;28;20029;-73
2023/10/01 16:32:26;;;;;;;3.40;1.33;;;21.70;65.20;;;;;;6250906;28;20552;-73
2023/10/01 16:35:28;;;;;;;2.00;1.00;;;21.70;65.30;;;;;;6270395;28;20090;-73
2023/10/01 16:38:31;;;;;;;2.60;1.00;;;21.70;65.30;;;;;;6271233;28;20086;-73
2023/10/01 16:41:31;;;;;;;3.72;1.27;;;21.70;65.40;;;;;;6268273;28;20021;-73
2023/10/01 16:44:36;;;;;;;2.40;1.20;;;21.70;65.20;;;;;;6249700;28;20053;-73
2023/10/01 16:47:48;;;;;;;;;;;21.70;65.20;;;;;;6251434;28;20027;-73
2023/10/01 16:50:56;;;;;;;2.28;1.17;;;21.70;65.20;;;;;;6258833;28;19909;-73
2023/10/01 16:53:56;;;;;;;4.95;1.90;;;21.70;65.20;;;;;;6261239;28;20029;-73
2023/10/01 16:56:58;;;;;;;4.32;0.95;;;21.70;65.20;;;;;;6261828;28;20732;-72
2023/10/01 16:59:58;;;;;;;1.98;0.95;;;21.70;65.20;;;;;;6270803;28;20094;-73
2023/10/01 17:03:03;;;;;;;3.30;1.35;;;21.70;65.20;;;;;;6266343;28;20069;-73